LKNACH weather

Letiště Náchod
Hradec Králové Region, Czechia

Public forecast

Using degrees Celsius for public forecast. Weather courtesy of forecast.io.

METAR (pilot weather report)

Closest report is Pardubice Airport, 28.1 nm (52.1 km) SSW. Retrieved 2019/07/19 14:19 UTC (4 minutes ago):

LKPD 191419Z 28014G34KT 9999 -SHRA FEW050TCU SCT070 SCT100 26/10 Q1015 RMK BLU

TAF (pilot weather forecast)

Closest forecast is Pardubice Airport, 28.1 nm (52.1 km) SSW. Retrieved 2019/07/19 12:00 UTC (2 hours ago):

TAF LKPD 191100Z 1912/2012 27010KT CAVOK TEMPO 1912/1922 28016KT SHRA SCT040TCU PROB30 TEMPO 1914/1920 28016G26KT 5000 TSRA SCT030CB BKN040 BECMG 1922/2001 VRB02KT